NEODyS-2

Near Earth Objects - Dynamic Site
NEODyS ∴ Observatories ∴ Site 691 ∴ Obs & residuals
Contact »
691  ▹ 
OBSERVATIONS AND RESIDUALS

691-Steward Observatory, Kitt Peak-Spacewatch

Detections | Residuals | Detections & Residuals

[1-200] [201-400] [401-600] [601-800] [801-1000] [1001-1200] [1201-1400] [1401-1600] [1601-1800] [1801-2000] [2001-2200] [2201-2400] [2401-2600] [2601-2800] [2801-3000] [3001-3200] [3201-3400] [3401-3600] [3601-3800] [3801-4000] [4001-4200] [4201-4400] [4401-4600] [4601-4800] [4801-5000] [5001-5200] [5201-5400] [5401-5600] [5601-5800] [5801-6000] [6001-6200] [6201-6400] [6401-6600] [6601-6800] [6801-7000] [7001-7200] [7201-7400] [7401-7600] [7601-7800] [7801-8000] [8001-8200] [8201-8400] [8401-8600] [8601-8800] [8801-9000] [9001-9200] [9201-9400] [9401-9600] [9601-9800] [9801-10000] [10001-10200] [10201-10400] [10401-10600] [10601-10800] [10801-11000] [11001-11200] [11201-11400] [11401-11600] [11601-11800] [11801-12000] [12001-12200] [12201-12400] [12401-12600] [12601-12800] [12801-13000] [13001-13200] [13201-13400] [13401-13600] [13601-13800] [13801-14000] [14001-14200] [14201-14400] [14401-14600] [14601-14800] [14801-15000] [15001-15200] [15201-15400] [15401-15600] [15601-15800] [15801-16000] [16001-16200] [16201-16400] [16401-16600] [16601-16800] [16801-17000] [17001-17200] [17201-17400] [17401-17600] [17601-17800] [17801-18000] [18001-18200] [18201-18400] [18401-18600] [18601-18800] [18801-19000] [19001-19200] [19201-19400] [19401-19600] [19601-19800] [19801-20000] [20001-20200] [20201-20400] [20401-20600] [20601-20800] [20801-21000] [21001-21200] [21201-21400] [21401-21600] [21601-21800] [21801-22000] [22001-22200] [22201-22400] [22401-22600] [22601-22800] [22801-23000] [23001-23200] [23201-23400] [23401-23600] [23601-23800] [23801-24000] [24001-24200] [24201-24400] [24401-24600] [24601-24800] [24801-25000] [25001-25200] [25201-25400] [25401-25600] [25601-25800] [25801-26000] [26001-26200] [26201-26400] [26401-26600] [26601-26800] [26801-27000] [27001-27200] [27201-27400] [27401-27600] [27601-27800] [27801-28000] [28001-28200] [28201-28400] [28401-28600] [28601-28800] [28801-29000] [29001-29200] [29201-29400] [29401-29600] [29601-29800] [29801-30000] [30001-30200] [30201-30400] [30401-30600] [30601-30800] [30801-31000] [31001-31200] [31201-31400] [31401-31600] [31601-31800] [31801-32000] [32001-32200] [32201-32400] [32401-32600] [32601-32800] [32801-33000] [33001-33200] [33201-33400] [33401-33600] [33601-33800] [33801-34000] [34001-34200] [34201-34400] [34401-34600] [34601-34800] [34801-35000] [35001-35200] [35201-35400] [35401-35600] [35601-35800] [35801-36000] [36001-36200] [36201-36400] [36401-36600] [36601-36800] [36801-37000] [37001-37200] [37201-37400] [37401-37600] [37601-37800] [37801-38000] [38001-38200] [38201-38400] [38401-38600] [38601-38800] [38801-39000] [39001-39200] [39201-39400] [39401-39600] [39601-39800] [39801-40000] [40001-40200] [40201-40400] [40401-40600] [40601-40800] [40801-41000] [41001-41200] [41201-41400] [41401-41600] [41601-41800] [41801-42000] [42001-42200] [42201-42400] [42401-42600] [42601-42800] [42801-43000] [43001-43200] [43201-43400] [43401-43600] [43601-43800] [43801-44000] [44001-44200] [44201-44400] [44401-44600] [44601-44800] [44801-45000] [45001-45200] [45201-45400] [45401-45600] [45601-45800] [45801-46000] [46001-46200] [46201-46400] [46401-46600] [46601-46800] [46801-47000] [47001-47200] [47201-47400] [47401-47600] [47601-47800] [47801-48000] [48001-48200] [48201-48400] [48401-48600] [48601-48800] [48801-49000] [49001-49200] [49201-49400] [49401-49600] [49601-49800] [49801-50000] [50001-50200] [50201-50388]

Designation T Tech N Date Right Ascension Declination Apparent Magnitude Star Catalog Site code χ Used A Used M
yr-mo-day precision hr:min:sec precision rms F bias residual deg min sec precision rms F bias residual mag/col rms residual
Phaethon O A 1984-09-22.38233 1.000E-05 06:07:47.650 1.500E-01 2.500 F 0.000 0.500 +34° 08' 01.20" 1.000E-01 2.500 F 0.000 -0.379 18.9 V 0.70 0.49 B 691 0.25 Yes Yes
Phaethon O A 1984-09-22.41087 1.000E-05 06:07:49.450 1.500E-01 2.500 F 0.000 0.532 +34° 08' 06.00" 1.000E-01 2.500 F 0.000 0.110 B 691 0.22 Yes No
Phaethon O A 1984-09-22.43923 1.000E-05 06:07:51.160 1.500E-01 2.500 F 0.000 -0.295 +34° 08' 10.20" 1.000E-01 2.500 F 0.000 0.069 B 691 0.12 Yes No
Phaethon O A 1984-09-29.38344 1.000E-05 06:14:52.990 1.500E-01 2.500 F 0.000 3.651 +34° 24' 58.50" 1.000E-01 2.500 F 0.000 -0.353 B 691 1.47 Yes No
Phaethon O A 1984-09-29.41351 1.000E-05 06:14:54.880 1.500E-01 2.500 F 0.000 6.311 +34° 25' 00.70" 1.000E-01 2.500 F 0.000 -3.154 B 691 2.82 Yes No
Phaethon O A 1984-09-29.42777 1.000E-05 06:14:55.450 1.500E-01 2.500 F 0.000 3.583 +34° 25' 06.10" 1.000E-01 2.500 F 0.000 -0.106 B 691 1.43 Yes No
Ul O A 1985-04-14.38154 1.000E-05 17:44:01.050 1.500E-01 2.500 F 0.000 0.806 +17° 21' 59.50" 1.000E-01 2.500 F 0.000 -0.798 19.4 V 0.70 0.15 B 691 0.45 Yes Yes
Ul O A 1985-04-14.39579 1.000E-05 17:44:02.200 1.500E-01 2.500 F 0.000 1.133 +17° 22' 20.20" 1.000E-01 2.500 F 0.000 -0.477 B 691 0.49 Yes No
Ul O A 1985-04-14.41027 1.000E-05 17:44:03.350 1.500E-01 2.500 F 0.000 1.235 +17° 22' 40.70" 1.000E-01 2.500 F 0.000 -0.673 B 691 0.56 Yes No
Sisyphus O A 1985-04-14.47657 1.000E-05 16:51:00.120 1.500E-01 2.500 F 0.000 0.626 -03° 38' 20.30" 1.000E-01 2.500 F 0.000 -0.006 15.4 V 0.70 -0.19 B 691 0.25 Yes Yes
Sisyphus O A 1985-04-14.49054 1.000E-05 16:50:59.610 1.500E-01 2.500 F 0.000 0.475 -03° 38' 24.50" 1.000E-01 2.500 F 0.000 0.019 B 691 0.19 Yes No
Sisyphus O A 1985-04-14.49394 1.000E-05 16:50:59.480 1.500E-01 2.500 F 0.000 0.350 -03° 38' 25.60" 1.000E-01 2.500 F 0.000 -0.053 B 691 0.14 Yes No
Ul O A 1985-04-19.34047 1.000E-05 17:50:33.050 1.500E-01 2.500 F 0.000 1.128 +19° 21' 28.50" 1.000E-01 2.500 F 0.000 -0.610 B 691 0.51 Yes No
Ul O A 1985-04-19.35402 1.000E-05 17:50:34.080 1.500E-01 2.500 F 0.000 1.496 +19° 21' 48.60" 1.000E-01 2.500 F 0.000 -0.534 B 691 0.64 Yes No
Ul O A 1985-04-19.36804 1.000E-05 17:50:35.100 1.500E-01 2.500 F 0.000 1.271 +19° 22' 08.90" 1.000E-01 2.500 F 0.000 -0.940 B 691 0.63 Yes No
Sisyphus O A 1985-04-19.41260 1.000E-05 16:47:37.700 1.500E-01 2.500 F 0.000 0.080 -04° 06' 04.10" 1.000E-01 2.500 F 0.000 -0.694 B 691 0.28 Yes No
Sisyphus O A 1985-04-19.42596 1.000E-05 16:47:37.020 1.500E-01 2.500 F 0.000 0.228 -04° 06' 09.10" 1.000E-01 2.500 F 0.000 -0.696 B 691 0.29 Yes No
Sisyphus O A 1985-04-19.44176 1.000E-05 16:47:36.210 1.500E-01 2.500 F 0.000 0.331 -04° 06' 14.90" 1.000E-01 2.500 F 0.000 -0.587 B 691 0.27 Yes No
Ul O A 1985-05-15.38322 1.000E-05 18:16:28.160 1.500E-01 2.500 F 0.000 0.790 +30° 08' 11.50" 1.000E-01 2.500 F 0.000 -2.218 B 691 0.94 Yes No
Ul O A 1985-05-15.40100 1.000E-05 18:16:28.810 1.500E-01 2.500 F 0.000 0.804 +30° 08' 37.90" 1.000E-01 2.500 F 0.000 -1.364 B 691 0.64 Yes No
Seleucus O A 1985-05-15.44097 1.000E-05 21:19:40.520 1.500E-01 2.500 F 0.000 -2.030 -07° 18' 52.50" 1.000E-01 2.500 F 0.000 -1.568 18.6 V 0.70 1.41 B 691 1.03 Yes Yes
Seleucus O A 1985-05-15.46694 1.000E-05 21:19:42.560 1.500E-01 2.500 F 0.000 -1.767 -07° 18' 31.10" 1.000E-01 2.500 F 0.000 -1.818 B 691 1.01 Yes No
Ul O A 1985-05-18.36163 1.000E-05 18:18:22.540 1.500E-01 2.500 F 0.000 0.163 +31° 18' 19.40" 1.000E-01 2.500 F 0.000 -0.492 B 691 0.21 Yes No
Ul O A 1985-05-18.37605 1.000E-05 18:18:23.010 1.500E-01 2.500 F 0.000 0.356 +31° 18' 39.80" 1.000E-01 2.500 F 0.000 -0.289 B 691 0.18 Yes No
Ul O A 1985-05-18.39102 1.000E-05 18:18:23.490 1.500E-01 2.500 F 0.000 0.480 +31° 18' 59.90" 1.000E-01 2.500 F 0.000 -1.113 B 691 0.49 Yes No
Seleucus O A 1985-05-19.43421 1.000E-05 21:24:43.650 1.500E-01 2.500 F 0.000 -1.202 -06° 24' 34.20" 1.000E-01 2.500 F 0.000 -0.409 B 691 0.51 Yes No
Seleucus O A 1985-05-19.45383 1.000E-05 21:24:44.970 1.500E-01 2.500 F 0.000 -1.192 -06° 24' 18.50" 1.000E-01 2.500 F 0.000 -0.173 B 691 0.48 Yes No
Seleucus O A 1985-05-19.47366 1.000E-05 21:24:46.300 1.500E-01 2.500 F 0.000 -1.149 -06° 24' 01.90" 1.000E-01 2.500 F 0.000 0.787 B 691 0.56 Yes No
Syrinx O A 1985-05-22.15196 1.000E-05 09:19:36.160 1.500E-01 2.500 F 0.000 0.306 -12° 18' 31.80" 1.000E-01 2.500 F 0.000 0.694 17.4 V 0.70 0.64 B 691 0.30 Yes Yes
Syrinx O A 1985-05-22.16583 1.000E-05 09:19:35.100 1.500E-01 2.500 F 0.000 0.609 -12° 17' 43.10" 1.000E-01 2.500 F 0.000 0.162 B 691 0.25 Yes No
Syrinx O A 1985-05-22.16843 1.000E-05 09:19:34.920 1.500E-01 2.500 F 0.000 0.929 -12° 17' 34.10" 1.000E-01 2.500 F 0.000 -0.070 B 691 0.37 Yes No
Syrinx O A 1985-05-22.17038 1.000E-05 09:19:34.770 1.500E-01 2.500 F 0.000 0.947 -12° 17' 27.40" 1.000E-01 2.500 F 0.000 -0.295 B 691 0.40 Yes No
Syrinx O A 1985-05-23.15122 1.000E-05 09:18:23.570 1.500E-01 2.500 F 0.000 0.364 -11° 19' 07.00" 1.000E-01 2.500 F 0.000 0.864 B 691 0.38 Yes No
Syrinx O A 1985-05-23.16149 1.000E-05 09:18:22.790 1.500E-01 2.500 F 0.000 0.621 -11° 18' 30.40" 1.000E-01 2.500 F 0.000 0.308 B 691 0.28 Yes No
Syrinx O A 1985-05-23.16464 1.000E-05 09:18:22.540 1.500E-01 2.500 F 0.000 0.531 -11° 18' 29.10" 1.000E-01 2.500 F 0.000 -9.792 B 691 3.92 No No
Seleucus O A 1985-06-13.41528 1.000E-05 21:39:37.090 1.500E-01 2.500 F 0.000 0.223 -02° 09' 03.60" 1.000E-01 2.500 F 0.000 0.118 B 691 0.10 Yes No
Seleucus O A 1985-06-13.43127 1.000E-05 21:39:37.040 1.500E-01 2.500 F 0.000 0.498 -02° 08' 57.30" 1.000E-01 2.500 F 0.000 -0.058 B 691 0.20 Yes No
Seleucus O A 1985-06-13.44206 1.000E-05 21:39:36.950 1.500E-01 2.500 F 0.000 -0.133 -02° 08' 53.00" 1.000E-01 2.500 F 0.000 -0.127 B 691 0.07 Yes No
Mera O A 1985-06-19.29551 1.000E-05 15:03:03.680 1.500E-01 2.500 F 0.000 2.699 +13° 57' 13.80" 1.000E-01 2.500 F 0.000 -2.083 B 691 1.36 Yes No
Mera O A 1985-06-19.31168 1.000E-05 15:03:04.020 1.500E-01 2.500 F 0.000 3.350 +13° 57' 28.90" 1.000E-01 2.500 F 0.000 -1.186 B 691 1.42 Yes No
Mera O A 1985-06-19.32263 1.000E-05 15:03:04.180 1.500E-01 2.500 F 0.000 2.721 +13° 57' 38.40" 1.000E-01 2.500 F 0.000 -1.283 B 691 1.20 Yes No
Seleucus O A 1985-06-19.43258 1.000E-05 21:38:40.390 1.500E-01 2.500 F 0.000 -0.050 -01° 34' 18.90" 1.000E-01 2.500 F 0.000 0.913 B 691 0.37 Yes No
Seleucus O A 1985-06-19.44035 1.000E-05 21:38:40.220 1.500E-01 2.500 F 0.000 0.029 -01° 34' 16.60" 1.000E-01 2.500 F 0.000 1.005 B 691 0.40 Yes No
Seleucus O A 1985-06-19.46161 1.000E-05 21:38:39.730 1.500E-01 2.500 F 0.000 -0.095 -01° 34' 10.70" 1.000E-01 2.500 F 0.000 0.866 B 691 0.35 Yes No
Orpheus O A 1985-08-14.32816 1.000E-05 23:52:13.880 1.500E-01 2.500 F 0.000 0.502 +03° 19' 57.90" 1.000E-01 2.500 F 0.000 -3.082 20.2 V 0.70 0.01 B 691 1.25 Yes Yes
Orpheus O A 1985-08-14.34275 1.000E-05 23:52:13.130 1.500E-01 2.500 F 0.000 -0.628 +03° 19' 54.80" 1.000E-01 2.500 F 0.000 -2.250 B 691 0.93 Yes No
Orpheus O A 1985-08-14.37213 1.000E-05 23:52:11.780 1.500E-01 2.500 F 0.000 -0.350 +03° 19' 46.20" 1.000E-01 2.500 F 0.000 -2.898 B 691 1.17 Yes No
Khufu O A 1985-08-14.44127 1.000E-05 02:47:02.260 1.500E-01 2.500 F 0.000 0.180 +15° 43' 25.80" 1.000E-01 2.500 F 0.000 -2.611 17.5 V 0.70 0.12 B 691 1.06 Yes Yes
Khufu O A 1985-08-14.45961 1.000E-05 02:46:57.050 1.500E-01 2.500 F 0.000 -0.366 +15° 42' 17.60" 1.000E-01 2.500 F 0.000 -2.899 B 691 1.19 Yes No
Khufu O A 1985-08-14.47733 1.000E-05 02:46:52.060 1.500E-01 2.500 F 0.000 -0.057 +15° 41' 12.70" 1.000E-01 2.500 F 0.000 -2.049 B 691 0.83 Yes No
Orpheus O A 1985-08-15.30520 1.000E-05 23:51:31.720 1.500E-01 2.500 F 0.000 1.567 +03° 15' 22.80" 1.000E-01 2.500 F 0.000 0.128 B 691 0.63 Yes No
Orpheus O A 1985-08-15.33669 1.000E-05 23:51:30.110 1.500E-01 2.500 F 0.000 0.879 +03° 15' 12.80" 1.000E-01 2.500 F 0.000 -0.528 B 691 0.41 Yes No
Orpheus O A 1985-08-15.35442 1.000E-05 23:51:29.230 1.500E-01 2.500 F 0.000 1.008 +03° 15' 06.80" 1.000E-01 2.500 F 0.000 -1.244 B 691 0.64 Yes No
Khufu O A 1985-08-15.43544 1.000E-05 02:42:34.230 1.500E-01 2.500 F 0.000 1.432 +14° 41' 04.70" 1.000E-01 2.500 F 0.000 0.378 B 691 0.61 Yes No
Khufu O A 1985-08-15.45256 1.000E-05 02:42:29.310 1.500E-01 2.500 F 0.000 0.769 +14° 39' 59.50" 1.000E-01 2.500 F 0.000 -0.207 B 691 0.32 Yes No
Khufu O A 1985-08-15.46877 1.000E-05 02:42:24.700 1.500E-01 2.500 F 0.000 1.021 +14° 38' 58.80" 1.000E-01 2.500 F 0.000 0.380 B 691 0.45 Yes No
Camillo O A 1985-08-24.38659 1.000E-05 22:16:55.430 1.500E-01 2.500 F 0.000 0.556 -20° 43' 13.70" 1.000E-01 2.500 F 0.000 0.094 16.0 V 0.70 0.51 B 691 0.23 Yes Yes
Camillo O A 1985-08-24.40392 1.000E-05 22:16:52.800 1.500E-01 2.500 F 0.000 0.227 -20° 44' 36.90" 1.000E-01 2.500 F 0.000 -0.285 B 691 0.15 Yes No
Camillo O A 1985-08-27.34451 1.000E-05 22:09:31.350 1.500E-01 2.500 F 0.000 -0.045 -24° 39' 15.60" 1.000E-01 2.500 F 0.000 0.591 B 691 0.24 Yes No
Camillo O A 1985-08-27.35559 1.000E-05 22:09:29.540 1.500E-01 2.500 F 0.000 -0.457 -24° 40' 08.40" 1.000E-01 2.500 F 0.000 0.473 B 691 0.26 Yes No
Camillo O A 1985-08-27.36802 1.000E-05 22:09:27.570 1.500E-01 2.500 F 0.000 -0.114 -24° 41' 07.20" 1.000E-01 2.500 F 0.000 0.739 B 691 0.30 Yes No
Morpheus O A 1985-09-20.26088 1.000E-05 21:58:34.050 1.500E-01 2.500 F 0.000 -0.571 -23° 09' 06.20" 1.000E-01 2.500 F 0.000 -0.068 19.8 V 0.70 -0.09 B 691 0.23 Yes Yes
Morpheus O A 1985-09-20.26782 1.000E-05 21:58:33.550 1.500E-01 2.500 F 0.000 -0.989 -23° 09' 07.40" 1.000E-01 2.500 F 0.000 -0.384 B 691 0.42 Yes No
Morpheus O A 1985-09-20.29132 1.000E-05 21:58:31.900 1.500E-01 2.500 F 0.000 -1.828 -23° 09' 11.10" 1.000E-01 2.500 F 0.000 -1.113 B 691 0.86 Yes No
Morpheus O A 1985-09-21.23247 1.000E-05 21:57:30.190 1.500E-01 2.500 F 0.000 -1.213 -23° 11' 06.20" 1.000E-01 2.500 F 0.000 0.496 B 691 0.52 Yes No
Morpheus O A 1985-09-21.23828 1.000E-05 21:57:29.800 1.500E-01 2.500 F 0.000 -1.248 -23° 11' 06.60" 1.000E-01 2.500 F 0.000 0.784 B 691 0.59 Yes No
Morpheus O A 1985-09-21.25895 1.000E-05 21:57:28.460 1.500E-01 2.500 F 0.000 -0.725 -23° 11' 08.60" 1.000E-01 2.500 F 0.000 1.212 B 691 0.57 Yes No
Khufu O A 1985-09-21.34777 1.000E-05 23:48:39.800 1.500E-01 2.500 F 0.000 -0.083 -20° 17' 18.10" 1.000E-01 2.500 F 0.000 -0.420 17.2 V 0.70 0.26 B 691 0.17 Yes Yes
Khufu O A 1985-09-21.36436 1.000E-05 23:48:36.180 1.500E-01 2.500 F 0.000 -0.088 -20° 17' 42.40" 1.000E-01 2.500 F 0.000 0.077 B 691 0.05 Yes No
Khufu O A 1985-09-21.38095 1.000E-05 23:48:32.600 1.500E-01 2.500 F 0.000 0.332 -20° 18' 07.00" 1.000E-01 2.500 F 0.000 0.155 B 691 0.15 Yes No
McAuliffe O A 1985-10-19.28396 1.000E-05 00:45:45.120 1.500E-01 2.500 F 0.000 1.675 -06° 21' 35.80" 1.000E-01 2.500 F 0.000 0.023 18.0 V 0.70 0.59 B 691 0.67 Yes Yes
Phaethon O A 1985-11-07.13141 1.000E-05 03:02:54.200 1.500E-01 2.500 F 0.000 0.556 +40° 04' 28.50" 1.000E-01 2.500 F 0.000 0.168 17.7 V 0.70 0.02 B 691 0.23 Yes Yes
Phaethon O A 1985-11-07.16061 1.000E-05 03:02:49.520 1.500E-01 2.500 F 0.000 0.842 +40° 04' 12.80" 1.000E-01 2.500 F 0.000 1.124 B 691 0.56 Yes No
Phaethon O A 1985-11-07.18981 1.000E-05 03:02:44.790 1.500E-01 2.500 F 0.000 0.693 +40° 03' 55.20" 1.000E-01 2.500 F 0.000 0.274 B 691 0.30 Yes No
Bede O A 1985-11-15.36089 1.000E-05 01:05:07.870 1.500E-01 2.500 F 0.000 0.572 +36° 18' 22.90" 1.000E-01 2.500 F 0.000 0.945 18.4 V 0.70 0.31 B 691 0.44 Yes Yes
Bede O A 1985-11-15.36882 1.000E-05 01:05:06.960 1.500E-01 2.500 F 0.000 -3.385 +36° 18' 17.10" 1.000E-01 2.500 F 0.000 -0.925 B 691 1.40 Yes No
Bede O A 1985-11-15.39336 1.000E-05 01:05:05.460 1.500E-01 2.500 F 0.000 0.190 +36° 18' 07.00" 1.000E-01 2.500 F 0.000 1.166 B 691 0.47 Yes No
Syrinx O A 1985-11-15.44191 1.000E-05 05:53:32.150 1.500E-01 2.500 F 0.000 1.438 +20° 00' 19.80" 1.000E-01 2.500 F 0.000 -0.555 18.6 V 0.70 0.24 B 691 0.62 Yes Yes
Syrinx O A 1985-11-15.45610 1.000E-05 05:53:30.280 1.500E-01 2.500 F 0.000 0.938 +20° 00' 08.50" 1.000E-01 2.500 F 0.000 -1.142 B 691 0.59 Yes No
Syrinx O A 1985-11-15.46841 1.000E-05 05:53:28.730 1.500E-01 2.500 F 0.000 1.510 +19° 59' 59.60" 1.000E-01 2.500 F 0.000 -0.732 B 691 0.67 Yes No
Bede O A 1985-11-16.34178 1.000E-05 01:03:58.440 1.500E-01 2.500 F 0.000 -0.657 +36° 10' 30.50" 1.000E-01 2.500 F 0.000 1.304 B 691 0.58 Yes No
Bede O A 1985-11-16.36828 1.000E-05 01:03:56.620 1.500E-01 2.500 F 0.000 0.063 +36° 10' 17.00" 1.000E-01 2.500 F 0.000 1.106 B 691 0.44 Yes No
Bede O A 1985-11-16.39638 1.000E-05 01:03:54.580 1.500E-01 2.500 F 0.000 -0.673 +36° 10' 03.00" 1.000E-01 2.500 F 0.000 1.263 B 691 0.57 Yes No
Syrinx O A 1985-11-16.45801 1.000E-05 05:51:23.200 1.500E-01 2.500 F 0.000 0.465 +19° 47' 37.10" 1.000E-01 2.500 F 0.000 -0.475 B 691 0.27 Yes No
Syrinx O A 1985-11-16.46949 1.000E-05 05:51:21.700 1.500E-01 2.500 F 0.000 0.408 +19° 47' 28.70" 1.000E-01 2.500 F 0.000 -0.192 B 691 0.18 Yes No
Syrinx O A 1985-11-16.48228 1.000E-05 05:51:20.070 1.500E-01 2.500 F 0.000 0.909 +19° 47' 18.90" 1.000E-01 2.500 F 0.000 -0.304 B 691 0.38 Yes No
Aditi O A 1985-11-19.23594 1.000E-05 23:20:26.170 1.500E-01 2.500 F 0.000 0.885 +35° 31' 01.60" 1.000E-01 2.500 F 0.000 -0.273 B 691 0.37 Yes No
Aditi O A 1985-11-19.25308 1.000E-05 23:20:22.420 1.500E-01 2.500 F 0.000 1.428 +35° 31' 44.60" 1.000E-01 2.500 F 0.000 -0.397 B 691 0.59 Yes No
Aditi O A 1985-11-19.26391 1.000E-05 23:20:20.000 1.500E-01 2.500 F 0.000 1.060 +35° 32' 11.70" 1.000E-01 2.500 F 0.000 -0.492 B 691 0.47 Yes No
McAuliffe O A 1985-11-20.11219 1.000E-05 00:18:01.230 1.500E-01 2.500 F 0.000 -0.557 -07° 29' 45.50" 1.000E-01 2.500 F 0.000 -0.597 18.0 V 0.70 0.05 B 691 0.33 Yes Yes
McAuliffe O A 1985-11-20.11650 1.000E-05 00:18:01.160 1.500E-01 2.500 F 0.000 -0.570 -07° 29' 44.60" 1.000E-01 2.500 F 0.000 -0.674 B 691 0.35 Yes No
McAuliffe O A 1985-11-20.13973 1.000E-05 00:18:00.810 1.500E-01 2.500 F 0.000 -0.220 -07° 29' 39.00" 1.000E-01 2.500 F 0.000 -0.359 B 691 0.17 Yes No
Aditi O A 1985-11-20.15404 1.000E-05 23:17:11.890 1.500E-01 2.500 F 0.000 0.066 +36° 09' 58.40" 1.000E-01 2.500 F 0.000 -0.826 16.3 V 0.70 0.20 B 691 0.34 Yes Yes
Aditi O A 1985-11-20.17402 1.000E-05 23:17:07.520 1.500E-01 2.500 F 0.000 0.328 +36° 10' 47.90" 1.000E-01 2.500 F 0.000 -1.232 B 691 0.52 Yes No
Aditi O A 1985-11-20.19561 1.000E-05 23:17:02.790 1.500E-01 2.500 F 0.000 0.367 +36° 11' 41.80" 1.000E-01 2.500 F 0.000 -1.046 B 691 0.45 Yes No
McAuliffe O A 1985-12-05.16840 1.000E-05 00:20:07.110 1.500E-01 2.500 F 0.000 -0.039 -05° 55' 39.00" 1.000E-01 2.500 F 0.000 -0.125 B 691 0.05 Yes No
McAuliffe O A 1985-12-05.18036 1.000E-05 00:20:07.300 1.500E-01 2.500 F 0.000 -1.759 -05° 55' 32.10" 1.000E-01 2.500 F 0.000 0.653 B 691 0.75 Yes No
McAuliffe O A 1985-12-05.19921 1.000E-05 00:20:07.860 1.500E-01 2.500 F 0.000 -0.630 -05° 55' 23.30" 1.000E-01 2.500 F 0.000 -0.210 B 691 0.27 Yes No
1985WA O A 1985-12-05.25273 1.000E-05 02:35:27.830 1.500E-01 2.500 F 0.000 0.216 +35° 54' 37.60" 1.000E-01 2.500 F 0.000 -0.413 17.0 V 0.70 0.33 B 691 0.19 Yes Yes
1985WA O A 1985-12-05.26573 1.000E-05 02:35:30.090 1.500E-01 2.500 F 0.000 1.150 +35° 55' 02.60" 1.000E-01 2.500 F 0.000 -1.033 B 691 0.62 Yes No
1985WA O A 1985-12-05.28130 1.000E-05 02:35:32.620 1.500E-01 2.500 F 0.000 0.036 +35° 55' 33.70" 1.000E-01 2.500 F 0.000 -0.450 B 691 0.18 Yes No
1985WA O A 1985-12-07.19890 1.000E-05 02:41:21.780 1.500E-01 2.500 F 0.000 -0.915 +36° 55' 49.40" 1.000E-01 2.500 F 0.000 -1.499 17.0 V 0.70 0.21 B 691 0.71 Yes Yes
1985WA O A 1985-12-07.20802 1.000E-05 02:41:23.290 1.500E-01 2.500 F 0.000 -0.963 +36° 56' 05.70" 1.000E-01 2.500 F 0.000 -1.419 B 691 0.70 Yes No
1985WA O A 1985-12-14.26962 1.000E-05 03:02:14.230 1.500E-01 2.500 F 0.000 -1.626 +39° 42' 31.60" 1.000E-01 2.500 F 0.000 1.508 B 691 0.89 Yes No
1985WA O A 1985-12-14.27588 1.000E-05 03:02:15.250 1.500E-01 2.500 F 0.000 -1.551 +39° 42' 38.10" 1.000E-01 2.500 F 0.000 1.418 17.4 V 0.70 0.19 B 691 0.85 Yes Yes
1985WA O A 1985-12-14.29082 1.000E-05 03:02:17.690 1.500E-01 2.500 F 0.000 -1.372 +39° 42' 53.70" 1.000E-01 2.500 F 0.000 1.388 B 691 0.79 Yes No
Baboquivari O A 1986-01-20.37617 1.000E-05 11:00:27.810 1.500E-01 2.500 F 0.000 1.124 -06° 27' 49.60" 1.000E-01 2.500 F 0.000 -0.329 19.8 V 0.70 -0.45 B 691 0.47 Yes Yes
Baboquivari O A 1986-01-20.40777 1.000E-05 11:00:26.670 1.500E-01 2.500 F 0.000 0.316 -06° 27' 45.60" 1.000E-01 2.500 F 0.000 -0.136 B 691 0.14 Yes No
Baboquivari O A 1986-01-20.41858 1.000E-05 11:00:26.340 1.500E-01 2.500 F 0.000 0.947 -06° 27' 44.40" 1.000E-01 2.500 F 0.000 -0.246 B 691 0.39 Yes No
Camillo O A 1986-03-15.19851 1.000E-05 04:58:01.640 1.500E-01 2.500 F 0.000 0.636 +12° 43' 53.80" 1.000E-01 2.500 F 0.000 1.430 B 691 0.63 Yes No
Camillo O A 1986-03-15.20338 1.000E-05 04:58:02.670 1.500E-01 2.500 F 0.000 -0.235 +12° 44' 25.50" 1.000E-01 2.500 F 0.000 0.829 B 691 0.34 Yes No
Camillo O A 1986-03-15.21240 1.000E-05 04:58:04.720 1.500E-01 2.500 F 0.000 0.202 +12° 45' 25.80" 1.000E-01 2.500 F 0.000 1.316 B 691 0.53 Yes No
Camillo O A 1986-03-16.15397 1.000E-05 05:01:38.250 1.500E-01 2.500 F 0.000 0.510 +14° 28' 31.70" 1.000E-01 2.500 F 0.000 -0.834 16.7 V 0.70 0.27 B 691 0.39 Yes Yes
Camillo O A 1986-03-16.16111 1.000E-05 05:01:39.810 1.500E-01 2.500 F 0.000 0.154 +14° 29' 18.00" 1.000E-01 2.500 F 0.000 -0.788 B 691 0.32 Yes No
Camillo O A 1986-03-16.16765 1.000E-05 05:01:41.300 1.500E-01 2.500 F 0.000 0.698 +14° 30' 00.70" 1.000E-01 2.500 F 0.000 -0.443 B 691 0.33 Yes No
Amun O A 1986-04-14.18051 1.000E-05 09:22:43.650 1.500E-01 2.500 F 0.000 0.911 +02° 12' 20.10" 1.000E-01 2.500 F 0.000 -0.632 16.5 V 0.70 0.63 B 691 0.44 Yes Yes
Amun O A 1986-04-14.19330 1.000E-05 09:22:42.680 1.500E-01 2.500 F 0.000 0.950 +02° 11' 58.20" 1.000E-01 2.500 F 0.000 -0.478 B 691 0.43 Yes No
Amun O A 1986-04-14.20084 1.000E-05 09:22:42.110 1.500E-01 2.500 F 0.000 0.974 +02° 11' 45.20" 1.000E-01 2.500 F 0.000 -0.478 B 691 0.43 Yes No
Orpheus O A 1986-04-14.43748 1.000E-05 19:23:22.630 1.500E-01 2.500 F 0.000 1.020 -10° 06' 05.60" 1.000E-01 2.500 F 0.000 0.022 17.3 V 0.70 0.85 B 691 0.41 Yes Yes
Orpheus O A 1986-04-14.44803 1.000E-05 19:23:15.030 1.500E-01 2.500 F 0.000 2.102 -10° 06' 04.20" 1.000E-01 2.500 F 0.000 -0.667 B 691 0.88 Yes No
Orpheus O A 1986-04-14.45313 1.000E-05 19:23:11.210 1.500E-01 2.500 F 0.000 0.558 -10° 06' 03.10" 1.000E-01 2.500 F 0.000 -0.603 B 691 0.33 Yes No
Bacchus O A 1986-04-14.46241 1.000E-05 17:37:00.570 1.500E-01 2.500 F 0.000 1.089 -26° 47' 04.20" 1.000E-01 2.500 F 0.000 -0.146 B 691 0.44 Yes No
Bacchus O A 1986-04-14.46728 1.000E-05 17:37:00.140 1.500E-01 2.500 F 0.000 1.655 -26° 47' 11.10" 1.000E-01 2.500 F 0.000 -0.684 B 691 0.72 Yes No
Amun O A 1986-04-15.24622 1.000E-05 09:21:33.740 1.500E-01 2.500 F 0.000 1.304 +01° 42' 07.60" 1.000E-01 2.500 F 0.000 0.117 B 691 0.52 Yes No
Amun O A 1986-04-15.25589 1.000E-05 09:21:33.080 1.500E-01 2.500 F 0.000 1.214 +01° 41' 51.40" 1.000E-01 2.500 F 0.000 0.180 B 691 0.49 Yes No
Amun O A 1986-04-15.26207 1.000E-05 09:21:32.680 1.500E-01 2.500 F 0.000 1.453 +01° 41' 40.80" 1.000E-01 2.500 F 0.000 -0.028 B 691 0.58 Yes No
Orpheus O A 1986-04-15.45697 1.000E-05 19:11:46.110 1.500E-01 2.500 F 0.000 1.634 -10° 00' 51.00" 1.000E-01 2.500 F 0.000 0.829 B 691 0.74 Yes No
Orpheus O A 1986-04-15.46451 1.000E-05 19:11:40.670 1.500E-01 2.500 F 0.000 0.059 -10° 00' 49.50" 1.000E-01 2.500 F 0.000 0.151 B 691 0.06 Yes No
Aditi O A 1986-05-13.16782 1.000E-05 10:41:58.640 1.500E-01 2.500 F 0.000 1.563 +20° 31' 48.60" 1.000E-01 2.500 F 0.000 -0.275 B 691 0.64 Yes No
Aditi O A 1986-05-13.17304 1.000E-05 10:41:58.970 1.500E-01 2.500 F 0.000 1.182 +20° 31' 41.00" 1.000E-01 2.500 F 0.000 0.934 B 691 0.60 Yes No
Aditi O A 1986-05-13.19294 1.000E-05 10:42:00.320 1.500E-01 2.500 F 0.000 0.998 +20° 31' 08.40" 1.000E-01 2.500 F 0.000 1.927 B 691 0.87 Yes No
Orpheus O A 1986-05-13.40916 1.000E-05 16:08:46.980 1.500E-01 2.500 F 0.000 0.983 -06° 57' 59.90" 1.000E-01 2.500 F 0.000 0.321 B 691 0.42 Yes No
Orpheus O A 1986-05-13.41997 1.000E-05 16:08:44.640 1.500E-01 2.500 F 0.000 1.055 -06° 57' 58.80" 1.000E-01 2.500 F 0.000 0.303 16.9 V 0.70 0.55 B 691 0.44 Yes Yes
Orpheus O A 1986-05-13.42890 1.000E-05 16:08:42.700 1.500E-01 2.500 F 0.000 0.918 -06° 57' 58.00" 1.000E-01 2.500 F 0.000 0.164 B 691 0.38 Yes No
Eger O A 1986-05-13.45234 1.000E-05 20:11:26.600 1.500E-01 2.500 F 0.000 -0.387 +06° 49' 06.60" 1.000E-01 2.500 F 0.000 0.581 B 691 0.28 Yes No
Eger O A 1986-05-13.47076 1.000E-05 20:11:28.500 1.500E-01 2.500 F 0.000 0.066 +06° 49' 18.20" 1.000E-01 2.500 F 0.000 0.838 B 691 0.34 Yes No
Eger O A 1986-05-13.47389 1.000E-05 20:11:28.790 1.500E-01 2.500 F 0.000 -0.343 +06° 49' 19.90" 1.000E-01 2.500 F 0.000 0.611 B 691 0.28 Yes No
Amun O A 1986-05-14.13888 1.000E-05 09:20:39.970 1.500E-01 2.500 F 0.000 0.403 -08° 42' 03.00" 1.000E-01 2.500 F 0.000 -0.894 17.5 V 0.70 0.54 B 691 0.39 Yes Yes
Amun O A 1986-05-14.14608 1.000E-05 09:20:40.230 1.500E-01 2.500 F 0.000 0.637 -08° 42' 10.60" 1.000E-01 2.500 F 0.000 -0.852 B 691 0.43 Yes No
Amun O A 1986-05-14.16836 1.000E-05 09:20:40.980 1.500E-01 2.500 F 0.000 0.450 -08° 42' 34.00" 1.000E-01 2.500 F 0.000 -0.625 B 691 0.31 Yes No
Aditi O A 1986-05-14.20385 1.000E-05 10:43:11.950 1.500E-01 2.500 F 0.000 0.734 +20° 02' 58.80" 1.000E-01 2.500 F 0.000 1.639 19.1 V 0.70 -0.27 B 691 0.72 Yes Yes
Aditi O A 1986-05-14.23444 1.000E-05 10:43:14.050 1.500E-01 2.500 F 0.000 0.547 +20° 02' 08.10" 1.000E-01 2.500 F 0.000 1.916 B 691 0.80 Yes No
Aditi O A 1986-05-14.24604 1.000E-05 10:43:14.900 1.500E-01 2.500 F 0.000 1.196 +20° 01' 48.10" 1.000E-01 2.500 F 0.000 1.255 B 691 0.69 Yes No
Hypnos O A 1986-05-14.37281 1.000E-05 15:37:35.420 1.500E-01 2.500 F 0.000 -0.183 -16° 21' 02.50" 1.000E-01 2.500 F 0.000 2.147 15.7 V 0.70 1.25 B 691 0.87 Yes Yes
Hypnos O A 1986-05-14.38372 1.000E-05 15:37:37.290 1.500E-01 2.500 F 0.000 -0.022 -16° 21' 14.70" 1.000E-01 2.500 F 0.000 1.931 B 691 0.78 Yes No
Hypnos O A 1986-05-14.40406 1.000E-05 15:37:40.790 1.500E-01 2.500 F 0.000 0.058 -16° 21' 37.10" 1.000E-01 2.500 F 0.000 1.733 B 691 0.70 Yes No
Hypnos O A 1986-05-15.30416 1.000E-05 15:40:49.870 1.500E-01 2.500 F 0.000 0.250 -16° 39' 50.60" 1.000E-01 2.500 F 0.000 0.904 15.5 V 0.70 1.21 B 691 0.38 Yes Yes
Hypnos O A 1986-05-15.31044 1.000E-05 15:40:51.100 1.500E-01 2.500 F 0.000 0.434 -16° 39' 59.40" 1.000E-01 2.500 F 0.000 0.224 B 691 0.20 Yes No
Hypnos O A 1986-05-15.32751 1.000E-05 15:40:54.410 1.500E-01 2.500 F 0.000 0.381 -16° 40' 21.10" 1.000E-01 2.500 F 0.000 0.493 B 691 0.25 Yes No
Hypnos O A 1986-05-16.35556 1.000E-05 15:44:59.510 1.500E-01 2.500 F 0.000 0.435 -17° 04' 06.10" 1.000E-01 2.500 F 0.000 -0.578 B 691 0.29 Yes No
Hypnos O A 1986-05-16.36854 1.000E-05 15:45:02.520 1.500E-01 2.500 F 0.000 0.736 -17° 04' 24.90" 1.000E-01 2.500 F 0.000 -0.500 B 691 0.36 Yes No
Hypnos O A 1986-05-16.37609 1.000E-05 15:45:04.260 1.500E-01 2.500 F 0.000 0.652 -17° 04' 35.80" 1.000E-01 2.500 F 0.000 -0.461 B 691 0.32 Yes No
Hypnos O A 1986-05-17.23010 1.000E-05 15:49:05.470 1.500E-01 2.500 F 0.000 0.808 -17° 27' 08.60" 1.000E-01 2.500 F 0.000 0.579 15.4 V 0.70 1.46 B 691 0.40 Yes Yes
Hypnos O A 1986-05-17.24650 1.000E-05 15:49:09.890 1.500E-01 2.500 F 0.000 0.741 -17° 27' 37.40" 1.000E-01 2.500 F 0.000 0.550 B 691 0.37 Yes No
Hypnos O A 1986-05-17.26057 1.000E-05 15:49:13.690 1.500E-01 2.500 F 0.000 0.924 -17° 28' 01.80" 1.000E-01 2.500 F 0.000 0.725 B 691 0.47 Yes No
Hypnos O A 1986-05-18.26212 1.000E-05 15:54:39.410 1.500E-01 2.500 F 0.000 -0.070 -17° 58' 35.50" 1.000E-01 2.500 F 0.000 -0.258 15.2 V 0.70 1.45 B 691 0.11 Yes Yes
Hypnos O A 1986-05-18.27086 1.000E-05 15:54:42.220 1.500E-01 2.500 F 0.000 -0.133 -17° 58' 53.10" 1.000E-01 2.500 F 0.000 -0.177 B 691 0.09 Yes No
Hypnos O A 1986-05-18.28652 1.000E-05 15:54:47.250 1.500E-01 2.500 F 0.000 -0.307 -17° 59' 24.70" 1.000E-01 2.500 F 0.000 -0.211 B 691 0.15 Yes No
Icarus O A 1986-06-05.39510 1.000E-05 21:14:09.140 1.500E-01 2.500 F 0.000 -0.127 -21° 34' 32.00" 1.000E-01 2.500 F 0.000 -0.402 17.5 V 0.70 0.53 B 691 0.17 Yes Yes
Icarus O A 1986-06-05.40115 1.000E-05 21:14:07.470 1.500E-01 2.500 F 0.000 0.028 -21° 34' 49.00" 1.000E-01 2.500 F 0.000 -0.492 B 691 0.20 Yes No
Icarus O A 1986-06-05.41272 1.000E-05 21:14:04.260 1.500E-01 2.500 F 0.000 0.144 -21° 35' 21.00" 1.000E-01 2.500 F 0.000 -0.170 B 691 0.09 Yes No
1986DA O A 1986-06-06.27721 1.000E-05 14:20:17.250 1.500E-01 2.500 F 0.000 0.947 -13° 52' 09.10" 1.000E-01 2.500 F 0.000 0.124 B 691 0.38 Yes No
1986DA O A 1986-06-06.29529 1.000E-05 14:20:19.490 1.500E-01 2.500 F 0.000 1.120 -13° 52' 32.70" 1.000E-01 2.500 F 0.000 0.394 B 691 0.48 Yes No
Aditi O A 1986-06-07.19521 1.000E-05 11:12:28.510 1.500E-01 2.500 F 0.000 -0.448 +10° 30' 47.20" 1.000E-01 2.500 F 0.000 -0.187 B 691 0.19 Yes No
Aditi O A 1986-06-07.21609 1.000E-05 11:12:30.060 1.500E-01 2.500 F 0.000 -0.372 +10° 30' 22.10" 1.000E-01 2.500 F 0.000 0.746 B 691 0.33 Yes No
1986DA O A 1986-06-07.28149 1.000E-05 14:22:27.050 1.500E-01 2.500 F 0.000 -0.839 -14° 14' 11.20" 1.000E-01 2.500 F 0.000 -0.412 B 691 0.37 Yes No
1986DA O A 1986-06-07.29277 1.000E-05 14:22:28.450 1.500E-01 2.500 F 0.000 -0.552 -14° 14' 25.70" 1.000E-01 2.500 F 0.000 -0.436 B 691 0.28 Yes No
1986DA O A 1986-06-07.30222 1.000E-05 14:22:29.590 1.500E-01 2.500 F 0.000 -0.827 -14° 14' 37.80" 1.000E-01 2.500 F 0.000 -0.427 B 691 0.37 Yes No
Eger O A 1986-06-08.34531 1.000E-05 20:58:09.600 1.500E-01 2.500 F 0.000 1.696 +10° 47' 17.60" 1.000E-01 2.500 F 0.000 0.887 B 691 0.77 Yes No
Eger O A 1986-06-08.35106 1.000E-05 20:58:10.230 1.500E-01 2.500 F 0.000 1.464 +10° 47' 20.00" 1.000E-01 2.500 F 0.000 0.736 B 691 0.66 Yes No
Eger O A 1986-06-08.35856 1.000E-05 20:58:11.030 1.500E-01 2.500 F 0.000 0.857 +10° 47' 23.00" 1.000E-01 2.500 F 0.000 0.412 B 691 0.38 Yes No
Eger O A 1986-06-08.37022 1.000E-05 20:58:12.360 1.500E-01 2.500 F 0.000 1.219 +10° 47' 28.60" 1.000E-01 2.500 F 0.000 0.854 B 691 0.60 Yes No
Huma O A 1986-07-05.21926 1.000E-05 14:53:20.930 1.500E-01 2.500 F 0.000 2.319 +16° 56' 34.30" 1.000E-01 2.500 F 0.000 -0.587 17.8 V 0.70 0.43 B 691 0.96 Yes Yes
Huma O A 1986-07-05.24416 1.000E-05 14:53:22.180 1.500E-01 2.500 F 0.000 2.169 +16° 57' 12.80" 1.000E-01 2.500 F 0.000 -0.654 B 691 0.91 Yes No
Huma O A 1986-07-05.26139 1.000E-05 14:53:23.060 1.500E-01 2.500 F 0.000 2.034 +16° 57' 39.30" 1.000E-01 2.500 F 0.000 -0.733 B 691 0.87 Yes No
Huma O A 1986-07-10.26600 1.000E-05 14:59:13.400 1.500E-01 2.500 F 0.000 0.194 +19° 02' 14.40" 1.000E-01 2.500 F 0.000 -1.370 B 691 0.55 Yes No
Huma O A 1986-07-10.27480 1.000E-05 14:59:14.040 1.500E-01 2.500 F 0.000 0.411 +19° 02' 27.80" 1.000E-01 2.500 F 0.000 -0.061 B 691 0.17 Yes No
Eger O A 1986-07-10.36963 1.000E-05 22:24:48.130 1.500E-01 2.500 F 0.000 0.015 +10° 06' 49.10" 1.000E-01 2.500 F 0.000 -0.740 B 691 0.30 Yes No
Eger O A 1986-07-10.38650 1.000E-05 22:24:52.320 1.500E-01 2.500 F 0.000 -0.015 +10° 06' 32.00" 1.000E-01 2.500 F 0.000 0.123 B 691 0.05 Yes No
Eger O A 1986-07-10.39296 1.000E-05 22:24:53.910 1.500E-01 2.500 F 0.000 -0.224 +10° 06' 25.10" 1.000E-01 2.500 F 0.000 0.122 B 691 0.10 Yes No
Beltrovata O A 1986-07-27.16221 1.000E-05 14:45:07.820 1.500E-01 2.500 F 0.000 0.987 -19° 08' 10.40" 1.000E-01 2.500 F 0.000 0.749 B 691 0.50 Yes No
Beltrovata O A 1986-07-27.17738 1.000E-05 14:45:09.110 1.500E-01 2.500 F 0.000 1.112 -19° 08' 10.50" 1.000E-01 2.500 F 0.000 0.375 17.9 V 0.70 0.59 B 691 0.47 Yes Yes
Beltrovata O A 1986-07-27.18728 1.000E-05 14:45:09.950 1.500E-01 2.500 F 0.000 1.140 -19° 08' 10.30" 1.000E-01 2.500 F 0.000 0.386 B 691 0.48 Yes No
Verenia O A 1986-07-27.23654 1.000E-05 19:31:42.630 1.500E-01 2.500 F 0.000 -2.260 +08° 43' 26.70" 1.000E-01 2.500 F 0.000 2.086 16.5 V 0.70 0.46 B 691 1.23 Yes Yes
Verenia O A 1986-07-27.26911 1.000E-05 19:31:41.100 1.500E-01 2.500 F 0.000 2.316 +08° 43' 29.80" 1.000E-01 2.500 F 0.000 1.163 B 691 1.04 Yes No
Huma O A 1986-07-27.27523 1.000E-05 15:29:48.360 1.500E-01 2.500 F 0.000 1.357 +24° 45' 14.80" 1.000E-01 2.500 F 0.000 -0.628 B 691 0.60 Yes No
Huma O A 1986-07-27.28124 1.000E-05 15:29:49.110 1.500E-01 2.500 F 0.000 0.960 +24° 45' 20.70" 1.000E-01 2.500 F 0.000 -0.538 17.9 V 0.70 0.30 B 691 0.44 Yes Yes
Huma O A 1986-07-27.29398 1.000E-05 15:29:50.800 1.500E-01 2.500 F 0.000 1.361 +24° 45' 33.00" 1.000E-01 2.500 F 0.000 -0.525 B 691 0.58 Yes No
1986DA O A 1986-07-30.17922 1.000E-05 16:04:42.610 1.500E-01 2.500 F 0.000 1.228 -24° 33' 44.40" 1.000E-01 2.500 F 0.000 0.305 B 691 0.51 Yes No
1986DA O A 1986-07-30.18959 1.000E-05 16:04:43.730 1.500E-01 2.500 F 0.000 1.170 -24° 33' 47.80" 1.000E-01 2.500 F 0.000 0.401 18.6 V 0.70 0.22 B 691 0.49 Yes Yes
1986DA O A 1986-07-30.19921 1.000E-05 16:04:44.780 1.500E-01 2.500 F 0.000 1.256 -24° 33' 50.80" 1.000E-01 2.500 F 0.000 0.632 B 691 0.56 Yes No
Verenia O A 1986-07-30.27667 1.000E-05 19:29:18.110 1.500E-01 2.500 F 0.000 1.252 +08° 46' 21.60" 1.000E-01 2.500 F 0.000 0.719 B 691 0.58 Yes No
Verenia O A 1986-07-30.28435 1.000E-05 19:29:17.680 1.500E-01 2.500 F 0.000 1.371 +08° 46' 21.60" 1.000E-01 2.500 F 0.000 0.791 B 691 0.63 Yes No
Verenia O A 1986-07-30.29259 1.000E-05 19:29:17.210 1.500E-01 2.500 F 0.000 1.364 +08° 46' 21.60" 1.000E-01 2.500 F 0.000 0.881 B 691 0.65 Yes No
Verenia O A 1986-07-31.27259 1.000E-05 19:28:31.060 1.500E-01 2.500 F 0.000 1.150 +08° 45' 52.20" 1.000E-01 2.500 F 0.000 0.717 B 691 0.54 Yes No
Verenia O A 1986-07-31.28502 1.000E-05 19:28:30.360 1.500E-01 2.500 F 0.000 1.257 +08° 45' 51.50" 1.000E-01 2.500 F 0.000 0.694 B 691 0.58 Yes No
Verenia O A 1986-07-31.29203 1.000E-05 19:28:29.960 1.500E-01 2.500 F 0.000 1.233 +08° 45' 51.40" 1.000E-01 2.500 F 0.000 0.989 B 691 0.63 Yes No
Huma O A 1986-08-31.24380 1.000E-05 17:27:45.900 1.500E-01 2.500 F 0.000 -0.156 +31° 07' 16.60" 1.000E-01 2.500 F 0.000 -1.260 B 691 0.51 Yes No
Huma O A 1986-08-31.25023 1.000E-05 17:27:47.650 1.500E-01 2.500 F 0.000 -0.025 +31° 07' 16.70" 1.000E-01 2.500 F 0.000 -1.467 B 691 0.59 Yes No
Huma O A 1986-08-31.25975 1.000E-05 17:27:50.230 1.500E-01 2.500 F 0.000 -0.053 +31° 07' 17.50" 1.000E-01 2.500 F 0.000 -1.092 B 691 0.44 Yes No

[1-200] [201-400] [401-600] [601-800] [801-1000] [1001-1200] [1201-1400] [1401-1600] [1601-1800] [1801-2000] [2001-2200] [2201-2400] [2401-2600] [2601-2800] [2801-3000] [3001-3200] [3201-3400] [3401-3600] [3601-3800] [3801-4000] [4001-4200] [4201-4400] [4401-4600] [4601-4800] [4801-5000] [5001-5200] [5201-5400] [5401-5600] [5601-5800] [5801-6000] [6001-6200] [6201-6400] [6401-6600] [6601-6800] [6801-7000] [7001-7200] [7201-7400] [7401-7600] [7601-7800] [7801-8000] [8001-8200] [8201-8400] [8401-8600] [8601-8800] [8801-9000] [9001-9200] [9201-9400] [9401-9600] [9601-9800] [9801-10000] [10001-10200] [10201-10400] [10401-10600] [10601-10800] [10801-11000] [11001-11200] [11201-11400] [11401-11600] [11601-11800] [11801-12000] [12001-12200] [12201-12400] [12401-12600] [12601-12800] [12801-13000] [13001-13200] [13201-13400] [13401-13600] [13601-13800] [13801-14000] [14001-14200] [14201-14400] [14401-14600] [14601-14800] [14801-15000] [15001-15200] [15201-15400] [15401-15600] [15601-15800] [15801-16000] [16001-16200] [16201-16400] [16401-16600] [16601-16800] [16801-17000] [17001-17200] [17201-17400] [17401-17600] [17601-17800] [17801-18000] [18001-18200] [18201-18400] [18401-18600] [18601-18800] [18801-19000] [19001-19200] [19201-19400] [19401-19600] [19601-19800] [19801-20000] [20001-20200] [20201-20400] [20401-20600] [20601-20800] [20801-21000] [21001-21200] [21201-21400] [21401-21600] [21601-21800] [21801-22000] [22001-22200] [22201-22400] [22401-22600] [22601-22800] [22801-23000] [23001-23200] [23201-23400] [23401-23600] [23601-23800] [23801-24000] [24001-24200] [24201-24400] [24401-24600] [24601-24800] [24801-25000] [25001-25200] [25201-25400] [25401-25600] [25601-25800] [25801-26000] [26001-26200] [26201-26400] [26401-26600] [26601-26800] [26801-27000] [27001-27200] [27201-27400] [27401-27600] [27601-27800] [27801-28000] [28001-28200] [28201-28400] [28401-28600] [28601-28800] [28801-29000] [29001-29200] [29201-29400] [29401-29600] [29601-29800] [29801-30000] [30001-30200] [30201-30400] [30401-30600] [30601-30800] [30801-31000] [31001-31200] [31201-31400] [31401-31600] [31601-31800] [31801-32000] [32001-32200] [32201-32400] [32401-32600] [32601-32800] [32801-33000] [33001-33200] [33201-33400] [33401-33600] [33601-33800] [33801-34000] [34001-34200] [34201-34400] [34401-34600] [34601-34800] [34801-35000] [35001-35200] [35201-35400] [35401-35600] [35601-35800] [35801-36000] [36001-36200] [36201-36400] [36401-36600] [36601-36800] [36801-37000] [37001-37200] [37201-37400] [37401-37600] [37601-37800] [37801-38000] [38001-38200] [38201-38400] [38401-38600] [38601-38800] [38801-39000] [39001-39200] [39201-39400] [39401-39600] [39601-39800] [39801-40000] [40001-40200] [40201-40400] [40401-40600] [40601-40800] [40801-41000] [41001-41200] [41201-41400] [41401-41600] [41601-41800] [41801-42000] [42001-42200] [42201-42400] [42401-42600] [42601-42800] [42801-43000] [43001-43200] [43201-43400] [43401-43600] [43601-43800] [43801-44000] [44001-44200] [44201-44400] [44401-44600] [44601-44800] [44801-45000] [45001-45200] [45201-45400] [45401-45600] [45601-45800] [45801-46000] [46001-46200] [46201-46400] [46401-46600] [46601-46800] [46801-47000] [47001-47200] [47201-47400] [47401-47600] [47601-47800] [47801-48000] [48001-48200] [48201-48400] [48401-48600] [48601-48800] [48801-49000] [49001-49200] [49201-49400] [49401-49600] [49601-49800] [49801-50000] [50001-50200] [50201-50388]